createdAt,value
2022-11-29T00:03:30.980Z,38.83
2022-11-29T00:06:04.561Z,43.72
2022-11-29T00:08:32.218Z,45.30
2022-11-29T00:11:06.116Z,45.67
2022-11-29T00:13:32.773Z,45.17
2022-11-29T00:16:03.702Z,46.97
2022-11-29T00:18:31.547Z,48.03
2022-11-29T00:20:59.250Z,48.10
2022-11-29T00:23:27.062Z,38.93
2022-11-29T00:25:54.642Z,42.03
2022-11-29T00:28:23.588Z,41.07
2022-11-29T00:30:51.256Z,50.63
2022-11-29T00:33:18.956Z,47.23
2022-11-29T00:35:46.473Z,43.53
2022-11-29T00:38:14.056Z,52.33
2022-11-29T00:40:41.640Z,43.70
2022-11-29T00:43:09.291Z,45.07
2022-11-29T00:45:38.266Z,42.27
2022-11-29T00:48:06.151Z,44.87
2022-11-29T00:50:33.725Z,49.30
2022-11-29T00:53:01.375Z,43.37
2022-11-29T00:55:29.018Z,45.60
2022-11-29T00:57:56.649Z,41.03
2022-11-29T01:00:24.340Z,47.80
2022-11-29T01:02:53.347Z,43.93
2022-11-29T01:05:20.925Z,48.27
2022-11-29T01:07:48.595Z,44.33
2022-11-29T01:10:16.251Z,43.27
2022-11-29T01:12:44.039Z,43.63
2022-11-29T01:15:12.188Z,42.47
2022-11-29T01:17:40.748Z,43.38
2022-11-29T01:20:12.740Z,45.88
2022-11-29T01:22:41.231Z,45.40
2022-11-29T01:25:09.995Z,41.00
2022-11-29T01:27:37.605Z,46.30
2022-11-29T01:30:05.747Z,42.27
2022-11-29T01:32:33.504Z,41.55
2022-11-29T01:35:01.278Z,46.57
2022-11-29T01:37:30.811Z,40.13
2022-11-29T01:39:58.517Z,42.37
2022-11-29T01:42:26.332Z,36.70
2022-11-29T01:45:14.579Z,44.77
2022-11-29T01:47:46.865Z,37.63
2022-11-29T01:50:15.203Z,37.00
2022-11-29T01:52:44.650Z,37.60
2022-11-29T01:55:12.571Z,42.53
2022-11-29T01:57:43.566Z,37.40
2022-11-29T02:00:14.122Z,40.37
2022-11-29T02:02:45.353Z,37.30
2022-11-29T02:05:15.820Z,40.33
2022-11-29T02:07:47.424Z,34.30
2022-11-29T02:10:16.596Z,42.67
2022-11-29T02:12:56.001Z,43.67
2022-11-29T02:15:35.071Z,40.20
2022-11-29T02:18:07.819Z,36.97
2022-11-29T02:21:12.359Z,33.93
2022-11-29T02:24:07.358Z,27.03
2022-11-29T02:27:03.554Z,40.50
2022-11-29T02:29:49.966Z,38.67
2022-11-29T02:33:05.025Z,27.57
2022-11-29T02:35:51.941Z,37.47
2022-11-29T02:38:31.393Z,34.50
2022-11-29T02:41:14.156Z,29.43
2022-11-29T02:43:59.372Z,40.73
2022-11-29T02:46:43.535Z,40.67
2022-11-29T02:49:20.767Z,31.73
2022-11-29T02:51:57.850Z,42.07
2022-11-29T02:54:30.809Z,35.33
2022-11-29T02:57:05.957Z,25.57
2022-11-29T02:59:46.412Z,31.93
2022-11-29T03:02:24.011Z,29.63
2022-11-29T03:04:59.833Z,42.77
2022-11-29T03:07:46.019Z,28.83
2022-11-29T03:10:24.454Z,32.23
2022-11-29T03:12:54.941Z,32.10
2022-11-29T03:15:30.174Z,31.87
2022-11-29T03:18:20.729Z,29.67
2022-11-29T03:21:04.356Z,28.83
2022-11-29T03:23:38.845Z,31.33
2022-11-29T03:26:10.044Z,31.70
2022-11-29T03:28:44.310Z,24.77
2022-11-29T03:31:17.212Z,30.20
2022-11-29T03:33:54.688Z,27.83
2022-11-29T03:36:35.096Z,28.97
2022-11-29T03:39:08.519Z,26.37
2022-11-29T03:41:41.290Z,26.77
2022-11-29T03:44:14.015Z,26.67
2022-11-29T03:46:48.886Z,31.30
2022-11-29T03:49:22.556Z,32.20
2022-11-29T03:52:01.688Z,33.27
2022-11-29T03:54:39.199Z,29.97
2022-11-29T03:57:07.667Z,34.23
2022-11-29T03:59:54.910Z,26.73
2022-11-29T04:03:02.924Z,33.77
2022-11-29T04:05:49.262Z,25.45
2022-11-29T04:08:51.243Z,29.63
2022-11-29T04:12:06.616Z,34.10
2022-11-29T04:15:12.787Z,40.83
2022-11-29T04:18:13.318Z,27.50
2022-11-29T04:21:01.559Z,32.05
2022-11-29T04:24:10.403Z,23.92
2022-11-29T04:27:05.217Z,30.10
2022-11-29T04:30:09.744Z,27.60
2022-11-29T04:33:21.016Z,30.13
2022-11-29T04:36:21.991Z,30.13
2022-11-29T04:39:16.353Z,31.30
2022-11-29T04:42:13.314Z,29.53
2022-11-29T04:45:04.770Z,24.43
2022-11-29T04:48:01.868Z,31.73
2022-11-29T04:50:45.157Z,28.90
2022-11-29T04:53:31.083Z,36.47
2022-11-29T04:56:10.086Z,30.30
2022-11-29T04:58:44.643Z,31.13
2022-11-29T05:01:24.386Z,33.93
2022-11-29T05:04:01.969Z,29.57
2022-11-29T05:06:38.329Z,30.07
2022-11-29T05:09:18.722Z,35.23
2022-11-29T05:11:58.756Z,33.40
2022-11-29T05:14:36.826Z,31.30
2022-11-29T05:17:31.700Z,27.10
2022-11-29T05:20:14.362Z,27.40
2022-11-29T05:22:54.041Z,31.00
2022-11-29T05:25:39.694Z,26.90
2022-11-29T05:28:16.149Z,32.03
2022-11-29T05:31:06.599Z,26.70
2022-11-29T05:33:54.481Z,26.73
2022-11-29T05:36:33.906Z,26.75
2022-11-29T05:39:17.662Z,27.43
2022-11-29T05:42:02.291Z,26.53
2022-11-29T05:44:35.057Z,26.87
2022-11-29T05:47:04.598Z,23.73
2022-11-29T05:49:42.188Z,23.20
2022-11-29T05:52:24.440Z,18.00
2022-11-29T05:55:10.713Z,21.23
2022-11-29T05:57:44.427Z,19.77
2022-11-29T06:00:14.656Z,17.23
2022-11-29T06:02:51.010Z,15.77
2022-11-29T06:05:28.309Z,17.70
2022-11-29T06:08:03.697Z,18.70
2022-11-29T06:10:34.860Z,19.70
2022-11-29T06:13:14.140Z,18.97
2022-11-29T06:15:58.735Z,17.80
2022-11-29T06:18:51.424Z,16.10
2022-11-29T06:21:27.464Z,18.37
2022-11-29T06:24:19.475Z,15.17
2022-11-29T06:27:12.329Z,22.40
2022-11-29T06:29:48.347Z,15.83
2022-11-29T06:32:25.400Z,16.30
2022-11-29T06:34:59.173Z,17.90
2022-11-29T06:37:32.404Z,14.90
2022-11-29T06:40:02.035Z,15.63
2022-11-29T06:42:29.706Z,16.33
2022-11-29T06:44:58.026Z,19.20
2022-11-29T06:47:30.110Z,20.35
2022-11-29T06:50:02.119Z,18.43
2022-11-29T06:52:38.667Z,19.87
2022-11-29T06:55:19.151Z,18.13
2022-11-29T06:58:04.753Z,19.50
2022-11-29T07:00:42.686Z,19.77
2022-11-29T07:03:28.680Z,23.45
2022-11-29T07:05:57.999Z,18.97
2022-11-29T07:08:26.330Z,19.13
2022-11-29T07:10:56.182Z,16.48
2022-11-29T07:13:24.372Z,18.33
2022-11-29T07:16:04.830Z,19.30
2022-11-29T07:18:39.967Z,18.13
2022-11-29T07:21:19.169Z,16.10
2022-11-29T07:23:57.963Z,17.97
2022-11-29T07:29:10.916Z,13.10
2022-11-29T07:31:55.879Z,16.57
2022-11-29T07:34:36.546Z,18.83
2022-11-29T07:37:12.340Z,14.90
2022-11-29T07:39:50.487Z,15.33
2022-11-29T07:42:30.393Z,17.10
2022-11-29T07:45:07.490Z,19.60
2022-11-29T07:47:36.325Z,15.60
2022-11-29T07:50:05.051Z,15.20
2022-11-29T07:52:34.676Z,19.58
2022-11-29T07:55:03.798Z,18.10
2022-11-29T07:57:34.002Z,20.77
2022-11-29T08:00:02.650Z,16.17
2022-11-29T08:02:32.127Z,18.40
2022-11-29T08:05:01.981Z,17.03
2022-11-29T08:07:30.736Z,17.57
2022-11-29T08:12:26.891Z,15.38
2022-11-29T08:14:55.774Z,18.20
2022-11-29T08:19:50.845Z,18.30
2022-11-29T08:22:18.516Z,16.40
2022-11-29T08:24:46.514Z,16.00
2022-11-29T08:27:14.342Z,20.60
2022-11-29T08:29:41.900Z,17.30
2022-11-29T08:32:10.957Z,18.43
2022-11-29T08:34:38.586Z,16.80
2022-11-29T08:37:06.291Z,16.97
2022-11-29T08:39:33.861Z,17.70
2022-11-29T08:42:01.558Z,15.03
2022-11-29T08:44:29.297Z,18.50
2022-11-29T08:47:14.524Z,16.13
2022-11-29T08:49:57.336Z,17.37
2022-11-29T08:52:42.785Z,18.73
2022-11-29T08:55:10.835Z,12.83
2022-11-29T08:57:40.462Z,13.30
2022-11-29T09:00:09.683Z,16.47
2022-11-29T09:05:08.029Z,12.75
2022-11-29T09:07:36.097Z,14.23
2022-11-29T09:10:05.430Z,16.80
2022-11-29T09:12:33.682Z,14.00
2022-11-29T09:15:01.377Z,21.83
2022-11-29T09:17:28.926Z,17.57
2022-11-29T09:19:56.530Z,19.23
2022-11-29T09:22:25.507Z,13.97
2022-11-29T09:24:53.071Z,17.73
2022-11-29T09:27:20.669Z,15.77
2022-11-29T09:29:48.291Z,18.93
2022-11-29T09:32:15.903Z,12.90
2022-11-29T09:34:43.894Z,20.43
2022-11-29T09:37:11.620Z,19.52
2022-11-29T09:39:41.655Z,18.23
2022-11-29T09:42:23.417Z,22.90
2022-11-29T09:45:04.112Z,20.40
2022-11-29T09:47:44.917Z,17.27
2022-11-29T09:50:26.584Z,17.17
2022-11-29T09:53:19.071Z,16.33
2022-11-29T09:56:01.022Z,18.87
2022-11-29T09:58:32.816Z,17.40
2022-11-29T10:01:05.168Z,16.73
2022-11-29T10:03:36.516Z,14.60
2022-11-29T10:06:09.701Z,14.60
2022-11-29T10:08:42.540Z,16.87
2022-11-29T10:11:18.921Z,17.90
2022-11-29T10:13:49.978Z,10.87
2022-11-29T10:16:26.613Z,18.43
2022-11-29T10:19:00.966Z,14.03
2022-11-29T10:21:33.476Z,15.57
2022-11-29T10:24:05.450Z,14.97
2022-11-29T10:26:35.457Z,16.23
2022-11-29T10:29:03.390Z,13.40
2022-11-29T10:31:35.816Z,14.07
2022-11-29T10:34:13.457Z,14.70
2022-11-29T10:36:45.599Z,15.23
2022-11-29T10:39:17.709Z,15.90
2022-11-29T10:41:47.708Z,14.67
2022-11-29T10:44:16.013Z,14.80
2022-11-29T10:46:43.927Z,13.98
2022-11-29T10:49:15.956Z,13.85
2022-11-29T10:51:43.878Z,11.80
2022-11-29T10:54:29.495Z,12.60
2022-11-29T10:57:00.617Z,13.97
2022-11-29T10:59:30.561Z,12.60
2022-11-29T11:01:58.748Z,13.53
2022-11-29T11:04:30.054Z,12.68
2022-11-29T11:07:01.247Z,12.80
2022-11-29T11:09:34.923Z,14.00
2022-11-29T11:12:06.018Z,14.63
2022-11-29T11:14:37.437Z,12.60
2022-11-29T11:17:26.896Z,12.87
2022-11-29T11:20:00.771Z,13.53
2022-11-29T11:22:31.295Z,14.37
2022-11-29T11:25:01.686Z,14.00
2022-11-29T11:27:33.625Z,15.77
2022-11-29T11:30:02.547Z,14.37
2022-11-29T11:32:30.215Z,15.67
2022-11-29T11:34:59.426Z,14.13
2022-11-29T11:37:28.865Z,13.40
2022-11-29T11:39:58.737Z,12.60
2022-11-29T11:42:47.020Z,13.57
2022-11-29T11:45:30.962Z,14.57
2022-11-29T11:48:01.050Z,15.60
2022-11-29T11:50:32.553Z,14.53
2022-11-29T11:53:04.883Z,16.40
2022-11-29T11:55:37.527Z,15.43
2022-11-29T11:58:17.529Z,16.57
2022-11-29T12:01:06.030Z,14.73
2022-11-29T12:03:40.572Z,15.07
2022-11-29T12:06:28.322Z,13.93
2022-11-29T12:09:02.230Z,14.37
2022-11-29T12:11:35.074Z,15.03
2022-11-29T12:14:06.117Z,15.33
2022-11-29T12:16:38.954Z,17.33
2022-11-29T12:19:16.076Z,15.47
2022-11-29T12:21:48.521Z,15.77
2022-11-29T12:24:24.929Z,15.43
2022-11-29T12:26:57.593Z,14.73
2022-11-29T12:29:29.821Z,13.50
2022-11-29T12:32:12.372Z,13.07
2022-11-29T12:34:52.307Z,14.97
2022-11-29T12:37:26.751Z,15.70
2022-11-29T12:40:04.283Z,14.80
2022-11-29T12:42:45.881Z,14.10
2022-11-29T12:45:39.827Z,13.87
2022-11-29T12:48:20.752Z,13.63
2022-11-29T12:50:58.120Z,12.73
2022-11-29T12:53:50.092Z,15.27
2022-11-29T12:56:26.867Z,16.77
2022-11-29T12:59:10.586Z,15.37
2022-11-29T13:01:53.676Z,14.90
2022-11-29T13:04:36.229Z,15.97
2022-11-29T13:07:12.189Z,15.27
2022-11-29T13:10:01.248Z,14.00
2022-11-29T13:12:36.220Z,14.83
2022-11-29T13:15:09.865Z,15.10
2022-11-29T13:17:42.293Z,15.53
2022-11-29T13:20:29.654Z,14.63
2022-11-29T13:23:02.073Z,14.87
2022-11-29T13:25:34.620Z,16.07
2022-11-29T13:28:06.749Z,15.90
2022-11-29T13:30:36.029Z,17.70
2022-11-29T13:33:12.442Z,17.33
2022-11-29T13:35:48.024Z,17.20
2022-11-29T13:38:24.050Z,17.40
2022-11-29T13:40:59.091Z,17.27
2022-11-29T13:43:35.025Z,17.20
2022-11-29T13:46:15.752Z,17.50
2022-11-29T13:48:49.144Z,16.90
2022-11-29T13:51:30.921Z,16.63
2022-11-29T13:54:00.745Z,16.17
2022-11-29T13:56:42.798Z,16.27
2022-11-29T13:59:18.478Z,16.00
2022-11-29T14:01:51.379Z,18.20
2022-11-29T14:04:31.085Z,17.60
2022-11-29T14:07:12.396Z,16.90
2022-11-29T14:09:49.268Z,17.33
2022-11-29T14:12:30.997Z,18.90
2022-11-29T14:15:03.771Z,18.23
2022-11-29T14:17:47.432Z,18.93
2022-11-29T14:20:51.664Z,18.20
2022-11-29T14:23:42.267Z,18.83
2022-11-29T14:26:30.437Z,19.53
2022-11-29T14:28:59.608Z,19.63
2022-11-29T14:31:54.268Z,19.70
2022-11-29T14:34:33.968Z,22.80
2022-11-29T14:37:15.440Z,20.80
2022-11-29T14:39:47.885Z,24.87
2022-11-29T14:42:18.713Z,22.53
2022-11-29T14:44:55.205Z,24.03
2022-11-29T14:47:26.297Z,24.50
2022-11-29T14:49:56.059Z,24.17
2022-11-29T14:52:30.507Z,23.17
2022-11-29T14:55:02.668Z,24.27
2022-11-29T14:58:08.863Z,27.50
2022-11-29T15:00:43.299Z,25.27
2022-11-29T15:03:13.848Z,27.60
2022-11-29T15:05:44.181Z,25.87
2022-11-29T15:08:18.829Z,34.63
2022-11-29T15:10:51.133Z,34.83
2022-11-29T15:13:26.971Z,34.63
2022-11-29T15:16:13.804Z,33.23
2022-11-29T15:19:06.897Z,27.70
2022-11-29T15:21:43.730Z,37.47
2022-11-29T15:24:13.547Z,37.87
2022-11-29T15:26:55.898Z,28.83
2022-11-29T15:29:24.140Z,30.83
2022-11-29T15:31:55.108Z,28.92
2022-11-29T15:34:32.478Z,29.17
2022-11-29T15:37:00.808Z,34.17
2022-11-29T15:39:31.893Z,31.02
2022-11-29T15:42:11.225Z,38.37
2022-11-29T15:44:39.357Z,34.87
2022-11-29T15:47:17.852Z,43.83
2022-11-29T15:49:45.476Z,26.50
2022-11-29T15:52:20.931Z,27.57
2022-11-29T15:54:53.516Z,31.70
2022-11-29T15:57:27.375Z,28.77
2022-11-29T15:59:58.023Z,29.70
2022-11-29T16:02:28.889Z,29.67
2022-11-29T16:05:00.876Z,35.10
2022-11-29T16:07:32.273Z,36.87
2022-11-29T16:10:04.698Z,29.60
2022-11-29T16:12:33.739Z,32.47
2022-11-29T16:15:02.423Z,32.87
2022-11-29T16:17:32.588Z,29.50
2022-11-29T16:20:23.620Z,29.97
2022-11-29T16:23:11.456Z,29.63
2022-11-29T16:25:56.914Z,32.35
2022-11-29T16:28:30.468Z,26.40
2022-11-29T16:30:58.514Z,22.53
2022-11-29T16:33:26.151Z,24.83
2022-11-29T16:36:05.202Z,25.63
2022-11-29T16:38:33.110Z,22.37
2022-11-29T16:41:06.411Z,22.92
2022-11-29T16:43:53.428Z,24.60
2022-11-29T16:46:30.240Z,22.97
2022-11-29T16:49:00.807Z,22.13
2022-11-29T16:51:37.273Z,22.43
2022-11-29T16:54:23.127Z,24.73
2022-11-29T16:56:51.819Z,25.73
2022-11-29T16:59:27.465Z,23.13
2022-11-29T17:01:56.795Z,27.63
2022-11-29T17:06:53.705Z,22.30
2022-11-29T17:09:25.123Z,25.08
2022-11-29T17:11:53.230Z,22.57
2022-11-29T17:14:22.342Z,21.52
2022-11-29T17:16:50.390Z,21.43
2022-11-29T17:19:19.754Z,21.08
2022-11-29T17:21:47.577Z,22.83
2022-11-29T17:24:18.242Z,23.20
2022-11-29T17:26:47.016Z,20.13
2022-11-29T17:31:45.464Z,19.48
2022-11-29T17:34:13.123Z,20.63
2022-11-29T17:36:41.956Z,19.07
2022-11-29T17:41:37.139Z,21.27
2022-11-29T17:44:05.172Z,20.30
2022-11-29T17:46:34.427Z,20.30
2022-11-29T17:49:06.167Z,19.70
2022-11-29T17:51:52.362Z,19.73
2022-11-29T17:54:20.788Z,20.17
2022-11-29T17:56:48.571Z,20.50
2022-11-29T17:59:16.480Z,19.43
2022-11-29T18:01:46.829Z,19.83
2022-11-29T18:04:16.069Z,19.00
2022-11-29T18:06:43.806Z,18.67
2022-11-29T18:09:12.768Z,17.20
2022-11-29T18:11:47.453Z,16.30
2022-11-29T18:14:18.003Z,17.70
2022-11-29T18:16:46.153Z,18.80
2022-11-29T18:19:17.061Z,16.70
2022-11-29T18:21:45.209Z,18.07
2022-11-29T18:24:13.212Z,17.58
2022-11-29T18:26:41.288Z,17.58
2022-11-29T18:29:09.835Z,17.83
2022-11-29T18:31:39.121Z,15.52
2022-11-29T18:34:09.544Z,14.00
2022-11-29T18:36:42.806Z,14.87
2022-11-29T18:39:13.855Z,15.47
2022-11-29T18:41:43.036Z,15.73
2022-11-29T18:44:12.736Z,14.83
2022-11-29T18:46:42.986Z,14.37
2022-11-29T18:49:12.179Z,14.43
2022-11-29T18:51:42.970Z,17.57
2022-11-29T18:54:10.946Z,16.13
2022-11-29T18:56:39.555Z,15.18
2022-11-29T18:59:10.161Z,16.95
2022-11-29T19:01:41.098Z,16.07
2022-11-29T19:04:10.414Z,14.63
2022-11-29T19:06:39.901Z,14.30
2022-11-29T19:09:13.235Z,13.73
2022-11-29T19:11:41.458Z,13.30
2022-11-29T19:14:12.398Z,12.88
2022-11-29T19:16:41.919Z,14.00
2022-11-29T19:19:09.716Z,13.70
2022-11-29T19:21:39.547Z,13.20
2022-11-29T19:24:14.673Z,12.90
2022-11-29T19:26:44.409Z,12.73
2022-11-29T19:29:13.018Z,14.53
2022-11-29T19:31:40.718Z,13.80
2022-11-29T19:34:08.449Z,12.30
2022-11-29T19:36:37.292Z,12.73
2022-11-29T19:41:35.102Z,13.23
2022-11-29T19:44:04.722Z,12.67
2022-11-29T19:46:34.930Z,12.73
2022-11-29T19:49:03.384Z,12.83
2022-11-29T19:51:31.985Z,13.60
2022-11-29T19:54:02.001Z,12.52
2022-11-29T19:56:30.730Z,13.73
2022-11-29T19:59:00.716Z,13.25
2022-11-29T20:01:39.295Z,12.00
2022-11-29T20:04:08.418Z,11.90
2022-11-29T20:06:36.275Z,12.30
2022-11-29T20:09:04.390Z,12.80
2022-11-29T20:11:32.011Z,13.48
2022-11-29T20:14:02.318Z,13.00
2022-11-29T20:16:31.147Z,13.70
2022-11-29T20:21:28.506Z,12.30
2022-11-29T20:23:57.272Z,11.70
2022-11-29T20:28:52.427Z,10.43
2022-11-29T20:31:23.177Z,11.23
2022-11-29T20:33:53.506Z,9.67
2022-11-29T20:36:38.694Z,9.70
2022-11-29T20:39:18.252Z,8.87
2022-11-29T20:41:51.841Z,10.17
2022-11-29T20:44:22.777Z,8.77
2022-11-29T20:46:52.191Z,8.97
2022-11-29T20:49:20.214Z,8.50
2022-11-29T20:51:56.416Z,9.30
2022-11-29T20:54:24.114Z,8.60
2022-11-29T20:56:51.748Z,9.17
2022-11-29T20:59:19.294Z,9.53
2022-11-29T21:01:47.038Z,9.20
2022-11-29T21:04:21.626Z,8.67
2022-11-29T21:06:50.838Z,8.93
2022-11-29T21:09:18.422Z,8.40
2022-11-29T21:11:46.619Z,8.77
2022-11-29T21:14:15.031Z,9.70
2022-11-29T21:16:43.080Z,9.20
2022-11-29T21:19:18.031Z,9.15
2022-11-29T21:21:58.857Z,8.93
2022-11-29T21:24:38.725Z,8.77
2022-11-29T21:27:12.899Z,8.83
2022-11-29T21:29:42.657Z,8.50
2022-11-29T21:32:25.210Z,7.87
2022-11-29T21:34:54.543Z,7.80
2022-11-29T21:37:27.437Z,8.10
2022-11-29T21:39:56.076Z,7.67
2022-11-29T21:42:23.713Z,8.15
2022-11-29T21:44:51.317Z,8.83
2022-11-29T21:47:18.991Z,7.53
2022-11-29T21:49:47.122Z,8.60
2022-11-29T21:52:20.696Z,8.27
2022-11-29T21:54:51.403Z,8.10
2022-11-29T21:57:19.063Z,7.73
2022-11-29T21:59:47.192Z,8.30
2022-11-29T22:02:15.119Z,8.30
2022-11-29T22:04:43.126Z,8.20
2022-11-29T22:07:10.827Z,8.85
2022-11-29T22:09:38.430Z,8.80
2022-11-29T22:12:31.963Z,9.73
2022-11-29T22:14:55.343Z,10.10
2022-11-29T22:17:22.889Z,9.67
2022-11-29T22:19:50.418Z,10.33
2022-11-29T22:22:18.023Z,8.90
2022-11-29T22:24:46.119Z,11.27
2022-11-29T22:27:17.633Z,10.77
2022-11-29T22:29:45.176Z,11.13
2022-11-29T22:32:12.830Z,11.10
2022-11-29T22:34:40.387Z,11.30
2022-11-29T22:37:08.011Z,11.70
2022-11-29T22:39:35.635Z,11.93
2022-11-29T22:42:03.233Z,12.23
2022-11-29T22:44:32.252Z,11.77
2022-11-29T22:46:59.979Z,12.50
2022-11-29T22:49:27.596Z,13.50
2022-11-29T22:51:55.181Z,13.83
2022-11-29T22:54:22.773Z,15.07
2022-11-29T22:56:50.384Z,14.13
2022-11-29T22:59:17.896Z,14.40
2022-11-29T23:01:46.985Z,15.10
2022-11-29T23:04:14.778Z,13.47
2022-11-29T23:06:43.714Z,16.83
2022-11-29T23:09:15.958Z,15.80
2022-11-29T23:11:44.228Z,17.57
2022-11-29T23:14:12.002Z,16.70
2022-11-29T23:16:39.710Z,17.23
2022-11-29T23:19:08.731Z,18.03
2022-11-29T23:21:38.060Z,18.00
2022-11-29T23:24:06.185Z,18.83
2022-11-29T23:26:37.408Z,18.92
2022-11-29T23:29:05.755Z,18.53
2022-11-29T23:31:34.428Z,17.52
2022-11-29T23:36:31.481Z,17.83
2022-11-29T23:38:59.179Z,19.00
2022-11-29T23:41:26.928Z,19.97
2022-11-29T23:43:54.505Z,18.03
2022-11-29T23:46:23.695Z,19.00
2022-11-29T23:48:51.778Z,18.73
2022-11-29T23:51:20.437Z,20.48
2022-11-29T23:53:53.272Z,18.60
2022-11-29T23:56:21.665Z,20.47
2022-11-29T23:58:49.830Z,19.25
